sensor_id;sensor_type;location;lat;lon;timestamp;P1;durP1;ratioP1;P2;durP2;ratioP2
37847;SDS011;23688;33.130;-117.188;2023-06-24T00:02:17;6.53;;;2.08;;
37847;SDS011;23688;33.130;-117.188;2023-06-24T00:04:44;5.72;;;1.80;;
37847;SDS011;23688;33.130;-117.188;2023-06-24T00:07:11;7.65;;;1.88;;
37847;SDS011;23688;33.130;-117.188;2023-06-24T00:09:37;7.72;;;1.90;;
37847;SDS011;23688;33.130;-117.188;2023-06-24T00:12:03;5.30;;;2.20;;
37847;SDS011;23688;33.130;-117.188;2023-06-24T00:14:30;9.57;;;2.75;;
37847;SDS011;23688;33.130;-117.188;2023-06-24T00:16:57;8.10;;;2.00;;
37847;SDS011;23688;33.130;-117.188;2023-06-24T00:19:24;5.90;;;1.90;;
37847;SDS011;23688;33.130;-117.188;2023-06-24T00:21:54;8.90;;;2.50;;
37847;SDS011;23688;33.130;-117.188;2023-06-24T00:24:22;5.38;;;2.33;;
37847;SDS011;23688;33.130;-117.188;2023-06-24T00:26:54;6.75;;;2.45;;
37847;SDS011;23688;33.130;-117.188;2023-06-24T00:29:21;4.43;;;1.80;;
37847;SDS011;23688;33.130;-117.188;2023-06-24T00:31:47;11.75;;;3.25;;
37847;SDS011;23688;33.130;-117.188;2023-06-24T00:34:14;8.68;;;2.55;;
37847;SDS011;23688;33.130;-117.188;2023-06-24T00:36:41;6.03;;;1.90;;
37847;SDS011;23688;33.130;-117.188;2023-06-24T00:39:12;6.47;;;1.98;;
37847;SDS011;23688;33.130;-117.188;2023-06-24T00:41:38;6.97;;;2.10;;
37847;SDS011;23688;33.130;-117.188;2023-06-24T00:44:04;10.07;;;2.40;;
37847;SDS011;23688;33.130;-117.188;2023-06-24T00:46:31;10.05;;;3.22;;
37847;SDS011;23688;33.130;-117.188;2023-06-24T00:48:58;6.85;;;2.22;;
37847;SDS011;23688;33.130;-117.188;2023-06-24T00:51:26;6.10;;;2.50;;
37847;SDS011;23688;33.130;-117.188;2023-06-24T00:53:58;5.45;;;2.30;;
37847;SDS011;23688;33.130;-117.188;2023-06-24T00:56:26;9.05;;;2.63;;
37847;SDS011;23688;33.130;-117.188;2023-06-24T00:59:00;6.07;;;2.20;;
37847;SDS011;23688;33.130;-117.188;2023-06-24T01:01:30;7.20;;;2.42;;
37847;SDS011;23688;33.130;-117.188;2023-06-24T01:04:01;4.20;;;1.75;;
37847;SDS011;23688;33.130;-117.188;2023-06-24T01:06:29;8.55;;;2.17;;
37847;SDS011;23688;33.130;-117.188;2023-06-24T01:08:59;8.95;;;2.38;;
37847;SDS011;23688;33.130;-117.188;2023-06-24T01:11:27;6.53;;;2.10;;
37847;SDS011;23688;33.130;-117.188;2023-06-24T01:13:55;7.05;;;2.42;;
37847;SDS011;23688;33.130;-117.188;2023-06-24T01:19:30;6.13;;;2.17;;
37847;SDS011;23688;33.130;-117.188;2023-06-24T01:27:59;6.50;;;2.33;;
37847;SDS011;23688;33.130;-117.188;2023-06-24T01:33:08;7.82;;;2.33;;
37847;SDS011;23688;33.130;-117.188;2023-06-24T01:35:39;9.25;;;2.58;;
37847;SDS011;23688;33.130;-117.188;2023-06-24T01:38:08;8.98;;;2.28;;
37847;SDS011;23688;33.130;-117.188;2023-06-24T01:40:48;6.90;;;2.70;;
37847;SDS011;23688;33.130;-117.188;2023-06-24T01:43:17;8.77;;;2.70;;
37847;SDS011;23688;33.130;-117.188;2023-06-24T01:45:48;8.48;;;2.50;;
37847;SDS011;23688;33.130;-117.188;2023-06-24T01:48:24;5.22;;;2.33;;
37847;SDS011;23688;33.130;-117.188;2023-06-24T01:51:00;7.80;;;2.30;;
37847;SDS011;23688;33.130;-117.188;2023-06-24T01:53:36;9.13;;;2.20;;
37847;SDS011;23688;33.130;-117.188;2023-06-24T01:56:11;12.43;;;2.50;;
37847;SDS011;23688;33.130;-117.188;2023-06-24T01:58:40;10.15;;;2.65;;
37847;SDS011;23688;33.130;-117.188;2023-06-24T02:01:09;11.88;;;2.30;;
37847;SDS011;23688;33.130;-117.188;2023-06-24T02:03:37;9.45;;;2.38;;
37847;SDS011;23688;33.130;-117.188;2023-06-24T02:06:05;10.83;;;2.80;;
37847;SDS011;23688;33.130;-117.188;2023-06-24T02:08:35;10.82;;;2.88;;
37847;SDS011;23688;33.130;-117.188;2023-06-24T02:11:05;17.27;;;3.00;;
37847;SDS011;23688;33.130;-117.188;2023-06-24T02:13:34;11.88;;;2.58;;
37847;SDS011;23688;33.130;-117.188;2023-06-24T02:16:02;10.40;;;2.75;;
37847;SDS011;23688;33.130;-117.188;2023-06-24T02:18:32;7.55;;;2.08;;
37847;SDS011;23688;33.130;-117.188;2023-06-24T02:21:01;7.85;;;2.25;;
37847;SDS011;23688;33.130;-117.188;2023-06-24T02:23:29;9.10;;;2.35;;
37847;SDS011;23688;33.130;-117.188;2023-06-24T02:25:56;11.45;;;3.53;;
37847;SDS011;23688;33.130;-117.188;2023-06-24T02:28:23;14.05;;;2.95;;
37847;SDS011;23688;33.130;-117.188;2023-06-24T02:30:50;8.63;;;2.53;;
37847;SDS011;23688;33.130;-117.188;2023-06-24T02:33:17;9.82;;;2.78;;
37847;SDS011;23688;33.130;-117.188;2023-06-24T02:35:43;7.20;;;2.42;;
37847;SDS011;23688;33.130;-117.188;2023-06-24T02:38:11;7.15;;;2.72;;
37847;SDS011;23688;33.130;-117.188;2023-06-24T02:40:37;9.85;;;3.17;;
37847;SDS011;23688;33.130;-117.188;2023-06-24T02:43:04;11.63;;;2.80;;
37847;SDS011;23688;33.130;-117.188;2023-06-24T02:45:30;12.38;;;3.10;;
37847;SDS011;23688;33.130;-117.188;2023-06-24T02:47:57;10.43;;;3.28;;
37847;SDS011;23688;33.130;-117.188;2023-06-24T02:50:25;10.23;;;3.00;;
37847;SDS011;23688;33.130;-117.188;2023-06-24T02:52:55;7.70;;;2.92;;
37847;SDS011;23688;33.130;-117.188;2023-06-24T02:55:24;12.63;;;2.63;;
37847;SDS011;23688;33.130;-117.188;2023-06-24T02:57:54;10.45;;;2.33;;
37847;SDS011;23688;33.130;-117.188;2023-06-24T03:00:22;9.88;;;2.55;;
37847;SDS011;23688;33.130;-117.188;2023-06-24T03:02:50;7.18;;;2.75;;
37847;SDS011;23688;33.130;-117.188;2023-06-24T03:05:16;8.65;;;2.58;;
37847;SDS011;23688;33.130;-117.188;2023-06-24T03:07:44;11.02;;;3.05;;
37847;SDS011;23688;33.130;-117.188;2023-06-24T03:10:12;10.68;;;3.90;;
37847;SDS011;23688;33.130;-117.188;2023-06-24T03:12:40;14.15;;;3.17;;
37847;SDS011;23688;33.130;-117.188;2023-06-24T03:15:06;8.50;;;2.85;;
37847;SDS011;23688;33.130;-117.188;2023-06-24T03:17:34;10.80;;;3.05;;
37847;SDS011;23688;33.130;-117.188;2023-06-24T03:20:02;9.07;;;2.70;;
37847;SDS011;23688;33.130;-117.188;2023-06-24T03:22:30;9.20;;;2.90;;
37847;SDS011;23688;33.130;-117.188;2023-06-24T03:24:57;12.77;;;3.67;;
37847;SDS011;23688;33.130;-117.188;2023-06-24T03:27:24;10.38;;;2.95;;
37847;SDS011;23688;33.130;-117.188;2023-06-24T03:29:51;9.82;;;3.25;;
37847;SDS011;23688;33.130;-117.188;2023-06-24T03:32:17;13.43;;;3.63;;
37847;SDS011;23688;33.130;-117.188;2023-06-24T03:34:43;10.30;;;3.03;;
37847;SDS011;23688;33.130;-117.188;2023-06-24T03:37:10;16.10;;;3.47;;
37847;SDS011;23688;33.130;-117.188;2023-06-24T03:39:36;9.32;;;3.75;;
37847;SDS011;23688;33.130;-117.188;2023-06-24T03:42:02;12.88;;;4.18;;
37847;SDS011;23688;33.130;-117.188;2023-06-24T03:44:29;23.42;;;4.80;;
37847;SDS011;23688;33.130;-117.188;2023-06-24T03:46:56;9.10;;;3.55;;
37847;SDS011;23688;33.130;-117.188;2023-06-24T03:49:23;17.67;;;4.72;;
37847;SDS011;23688;33.130;-117.188;2023-06-24T03:51:49;13.63;;;4.22;;
37847;SDS011;23688;33.130;-117.188;2023-06-24T03:54:16;12.98;;;3.50;;
37847;SDS011;23688;33.130;-117.188;2023-06-24T03:56:42;10.93;;;4.30;;
37847;SDS011;23688;33.130;-117.188;2023-06-24T03:59:08;13.40;;;4.00;;
37847;SDS011;23688;33.130;-117.188;2023-06-24T04:01:34;20.95;;;3.88;;
37847;SDS011;23688;33.130;-117.188;2023-06-24T04:06:29;13.18;;;3.25;;
37847;SDS011;23688;33.130;-117.188;2023-06-24T04:08:56;12.20;;;3.72;;
37847;SDS011;23688;33.130;-117.188;2023-06-24T04:11:22;24.23;;;4.93;;
37847;SDS011;23688;33.130;-117.188;2023-06-24T04:13:48;15.82;;;4.05;;
37847;SDS011;23688;33.130;-117.188;2023-06-24T04:16:15;8.02;;;3.53;;
37847;SDS011;23688;33.130;-117.188;2023-06-24T04:18:41;13.23;;;3.78;;
37847;SDS011;23688;33.130;-117.188;2023-06-24T04:21:08;13.95;;;4.13;;
37847;SDS011;23688;33.130;-117.188;2023-06-24T04:23:34;15.25;;;4.50;;
37847;SDS011;23688;33.130;-117.188;2023-06-24T04:26:00;17.05;;;3.60;;
37847;SDS011;23688;33.130;-117.188;2023-06-24T04:28:27;16.48;;;4.45;;
37847;SDS011;23688;33.130;-117.188;2023-06-24T04:30:53;14.00;;;4.22;;
37847;SDS011;23688;33.130;-117.188;2023-06-24T04:33:20;13.68;;;4.15;;
37847;SDS011;23688;33.130;-117.188;2023-06-24T04:35:47;11.95;;;4.38;;
37847;SDS011;23688;33.130;-117.188;2023-06-24T04:38:13;11.75;;;3.78;;
37847;SDS011;23688;33.130;-117.188;2023-06-24T04:40:43;11.63;;;4.07;;
37847;SDS011;23688;33.130;-117.188;2023-06-24T04:43:10;15.90;;;4.15;;
37847;SDS011;23688;33.130;-117.188;2023-06-24T04:45:37;18.80;;;4.28;;
37847;SDS011;23688;33.130;-117.188;2023-06-24T04:48:03;8.98;;;3.42;;
37847;SDS011;23688;33.130;-117.188;2023-06-24T04:50:30;19.67;;;4.22;;
37847;SDS011;23688;33.130;-117.188;2023-06-24T04:52:56;13.88;;;4.20;;
37847;SDS011;23688;33.130;-117.188;2023-06-24T04:55:22;7.72;;;3.45;;
37847;SDS011;23688;33.130;-117.188;2023-06-24T04:57:49;19.13;;;4.45;;
37847;SDS011;23688;33.130;-117.188;2023-06-24T05:00:15;13.13;;;4.03;;
37847;SDS011;23688;33.130;-117.188;2023-06-24T05:02:42;15.38;;;4.30;;
37847;SDS011;23688;33.130;-117.188;2023-06-24T05:05:08;10.82;;;3.55;;
37847;SDS011;23688;33.130;-117.188;2023-06-24T05:07:34;14.52;;;4.15;;
37847;SDS011;23688;33.130;-117.188;2023-06-24T05:10:01;14.27;;;4.22;;
37847;SDS011;23688;33.130;-117.188;2023-06-24T05:12:27;9.30;;;3.85;;
37847;SDS011;23688;33.130;-117.188;2023-06-24T05:14:53;13.30;;;4.32;;
37847;SDS011;23688;33.130;-117.188;2023-06-24T05:17:19;8.95;;;3.83;;
37847;SDS011;23688;33.130;-117.188;2023-06-24T05:19:46;11.98;;;4.00;;
37847;SDS011;23688;33.130;-117.188;2023-06-24T05:22:12;13.32;;;4.07;;
37847;SDS011;23688;33.130;-117.188;2023-06-24T05:24:38;9.43;;;3.60;;
37847;SDS011;23688;33.130;-117.188;2023-06-24T05:27:06;14.52;;;5.07;;
37847;SDS011;23688;33.130;-117.188;2023-06-24T05:29:33;17.45;;;4.72;;
37847;SDS011;23688;33.130;-117.188;2023-06-24T05:32:00;13.70;;;5.43;;
37847;SDS011;23688;33.130;-117.188;2023-06-24T05:34:29;12.88;;;4.85;;
37847;SDS011;23688;33.130;-117.188;2023-06-24T05:36:56;13.43;;;4.50;;
37847;SDS011;23688;33.130;-117.188;2023-06-24T05:39:23;11.85;;;4.97;;
37847;SDS011;23688;33.130;-117.188;2023-06-24T05:41:50;14.95;;;4.82;;
37847;SDS011;23688;33.130;-117.188;2023-06-24T05:44:16;19.35;;;5.13;;
37847;SDS011;23688;33.130;-117.188;2023-06-24T05:46:45;18.50;;;5.82;;
37847;SDS011;23688;33.130;-117.188;2023-06-24T05:49:12;11.07;;;4.35;;
37847;SDS011;23688;33.130;-117.188;2023-06-24T05:51:38;9.93;;;4.50;;
37847;SDS011;23688;33.130;-117.188;2023-06-24T05:54:04;13.57;;;4.50;;
37847;SDS011;23688;33.130;-117.188;2023-06-24T05:56:33;10.77;;;4.57;;
37847;SDS011;23688;33.130;-117.188;2023-06-24T05:58:59;14.32;;;4.50;;
37847;SDS011;23688;33.130;-117.188;2023-06-24T06:01:25;13.55;;;4.70;;
37847;SDS011;23688;33.130;-117.188;2023-06-24T06:03:52;14.52;;;4.15;;
37847;SDS011;23688;33.130;-117.188;2023-06-24T06:06:18;14.00;;;4.32;;
37847;SDS011;23688;33.130;-117.188;2023-06-24T06:08:44;12.43;;;5.10;;
37847;SDS011;23688;33.130;-117.188;2023-06-24T06:11:11;13.30;;;4.88;;
37847;SDS011;23688;33.130;-117.188;2023-06-24T06:13:37;11.98;;;5.10;;
37847;SDS011;23688;33.130;-117.188;2023-06-24T06:16:03;14.40;;;5.55;;
37847;SDS011;23688;33.130;-117.188;2023-06-24T06:18:30;11.88;;;5.03;;
37847;SDS011;23688;33.130;-117.188;2023-06-24T06:20:56;13.88;;;4.43;;
37847;SDS011;23688;33.130;-117.188;2023-06-24T06:23:22;14.50;;;4.60;;
37847;SDS011;23688;33.130;-117.188;2023-06-24T06:25:49;14.73;;;5.07;;
37847;SDS011;23688;33.130;-117.188;2023-06-24T06:28:16;14.65;;;4.63;;
37847;SDS011;23688;33.130;-117.188;2023-06-24T06:30:42;13.80;;;4.88;;
37847;SDS011;23688;33.130;-117.188;2023-06-24T06:33:09;14.25;;;4.95;;
37847;SDS011;23688;33.130;-117.188;2023-06-24T06:35:35;18.95;;;4.45;;
37847;SDS011;23688;33.130;-117.188;2023-06-24T06:38:01;18.88;;;3.90;;
37847;SDS011;23688;33.130;-117.188;2023-06-24T06:40:28;11.18;;;4.95;;
37847;SDS011;23688;33.130;-117.188;2023-06-24T06:42:54;8.93;;;3.90;;
37847;SDS011;23688;33.130;-117.188;2023-06-24T06:45:20;13.70;;;4.40;;
37847;SDS011;23688;33.130;-117.188;2023-06-24T06:47:47;17.00;;;4.20;;
37847;SDS011;23688;33.130;-117.188;2023-06-24T06:50:14;18.33;;;4.75;;
37847;SDS011;23688;33.130;-117.188;2023-06-24T06:52:41;14.90;;;3.70;;
37847;SDS011;23688;33.130;-117.188;2023-06-24T06:55:07;19.77;;;4.22;;
37847;SDS011;23688;33.130;-117.188;2023-06-24T06:57:35;11.07;;;4.40;;
37847;SDS011;23688;33.130;-117.188;2023-06-24T07:00:02;12.48;;;3.67;;
37847;SDS011;23688;33.130;-117.188;2023-06-24T07:02:29;16.40;;;3.67;;
37847;SDS011;23688;33.130;-117.188;2023-06-24T07:04:55;16.48;;;3.90;;
37847;SDS011;23688;33.130;-117.188;2023-06-24T07:07:21;15.75;;;5.10;;
37847;SDS011;23688;33.130;-117.188;2023-06-24T07:09:48;10.85;;;3.58;;
37847;SDS011;23688;33.130;-117.188;2023-06-24T07:12:14;13.90;;;4.70;;
37847;SDS011;23688;33.130;-117.188;2023-06-24T07:14:40;13.52;;;4.85;;
37847;SDS011;23688;33.130;-117.188;2023-06-24T07:17:07;8.60;;;4.00;;
37847;SDS011;23688;33.130;-117.188;2023-06-24T07:19:34;17.90;;;4.82;;
37847;SDS011;23688;33.130;-117.188;2023-06-24T07:22:00;13.98;;;5.90;;
37847;SDS011;23688;33.130;-117.188;2023-06-24T07:24:26;14.32;;;4.55;;
37847;SDS011;23688;33.130;-117.188;2023-06-24T07:26:52;9.75;;;4.40;;
37847;SDS011;23688;33.130;-117.188;2023-06-24T07:29:19;8.13;;;4.10;;
37847;SDS011;23688;33.130;-117.188;2023-06-24T07:31:45;8.75;;;4.47;;
37847;SDS011;23688;33.130;-117.188;2023-06-24T07:34:11;11.95;;;4.40;;
37847;SDS011;23688;33.130;-117.188;2023-06-24T07:36:38;17.92;;;6.25;;
37847;SDS011;23688;33.130;-117.188;2023-06-24T07:39:04;9.95;;;4.35;;
37847;SDS011;23688;33.130;-117.188;2023-06-24T07:41:31;12.77;;;3.78;;
37847;SDS011;23688;33.130;-117.188;2023-06-24T07:43:58;10.95;;;4.68;;
37847;SDS011;23688;33.130;-117.188;2023-06-24T07:46:24;11.52;;;3.85;;
37847;SDS011;23688;33.130;-117.188;2023-06-24T07:48:53;16.05;;;4.85;;
37847;SDS011;23688;33.130;-117.188;2023-06-24T07:51:22;10.40;;;4.10;;
37847;SDS011;23688;33.130;-117.188;2023-06-24T07:53:48;14.45;;;4.80;;
37847;SDS011;23688;33.130;-117.188;2023-06-24T07:56:14;12.00;;;4.57;;
37847;SDS011;23688;33.130;-117.188;2023-06-24T07:58:41;14.70;;;4.85;;
37847;SDS011;23688;33.130;-117.188;2023-06-24T08:01:07;17.20;;;4.30;;
37847;SDS011;23688;33.130;-117.188;2023-06-24T08:03:33;13.68;;;4.53;;
37847;SDS011;23688;33.130;-117.188;2023-06-24T08:06:02;12.80;;;4.07;;
37847;SDS011;23688;33.130;-117.188;2023-06-24T08:08:28;13.32;;;4.00;;
37847;SDS011;23688;33.130;-117.188;2023-06-24T08:10:55;12.80;;;4.40;;
37847;SDS011;23688;33.130;-117.188;2023-06-24T08:13:21;11.30;;;4.30;;
37847;SDS011;23688;33.130;-117.188;2023-06-24T08:15:47;14.82;;;4.28;;
37847;SDS011;23688;33.130;-117.188;2023-06-24T08:18:14;17.58;;;4.55;;
37847;SDS011;23688;33.130;-117.188;2023-06-24T08:20:40;10.40;;;4.38;;
37847;SDS011;23688;33.130;-117.188;2023-06-24T08:23:06;11.38;;;4.07;;
37847;SDS011;23688;33.130;-117.188;2023-06-24T08:25:34;9.80;;;4.25;;
37847;SDS011;23688;33.130;-117.188;2023-06-24T08:28:01;14.35;;;4.07;;
37847;SDS011;23688;33.130;-117.188;2023-06-24T08:30:27;13.15;;;5.32;;
37847;SDS011;23688;33.130;-117.188;2023-06-24T08:32:53;13.60;;;4.53;;
37847;SDS011;23688;33.130;-117.188;2023-06-24T08:35:21;14.98;;;4.97;;
37847;SDS011;23688;33.130;-117.188;2023-06-24T08:37:47;13.82;;;3.70;;
37847;SDS011;23688;33.130;-117.188;2023-06-24T08:40:13;9.63;;;4.18;;
37847;SDS011;23688;33.130;-117.188;2023-06-24T08:42:40;10.18;;;4.00;;
37847;SDS011;23688;33.130;-117.188;2023-06-24T08:45:06;15.38;;;4.30;;
37847;SDS011;23688;33.130;-117.188;2023-06-24T08:47:33;12.50;;;4.63;;
37847;SDS011;23688;33.130;-117.188;2023-06-24T08:50:11;9.20;;;3.67;;
37847;SDS011;23688;33.130;-117.188;2023-06-24T08:52:41;14.65;;;4.85;;
37847;SDS011;23688;33.130;-117.188;2023-06-24T08:55:12;10.35;;;4.10;;
37847;SDS011;23688;33.130;-117.188;2023-06-24T08:57:41;11.00;;;4.32;;
37847;SDS011;23688;33.130;-117.188;2023-06-24T09:00:08;10.45;;;4.45;;
37847;SDS011;23688;33.130;-117.188;2023-06-24T09:02:36;9.00;;;4.05;;
37847;SDS011;23688;33.130;-117.188;2023-06-24T09:05:06;9.93;;;3.78;;
37847;SDS011;23688;33.130;-117.188;2023-06-24T09:07:33;13.70;;;4.00;;
37847;SDS011;23688;33.130;-117.188;2023-06-24T09:10:00;12.13;;;3.85;;
37847;SDS011;23688;33.130;-117.188;2023-06-24T09:12:26;13.90;;;4.63;;
37847;SDS011;23688;33.130;-117.188;2023-06-24T09:14:53;15.13;;;3.92;;
37847;SDS011;23688;33.130;-117.188;2023-06-24T09:17:20;5.60;;;3.65;;
37847;SDS011;23688;33.130;-117.188;2023-06-24T09:19:48;8.07;;;3.85;;
37847;SDS011;23688;33.130;-117.188;2023-06-24T09:22:15;12.33;;;4.20;;
37847;SDS011;23688;33.130;-117.188;2023-06-24T09:24:43;11.98;;;4.63;;
37847;SDS011;23688;33.130;-117.188;2023-06-24T09:27:14;12.90;;;4.50;;
37847;SDS011;23688;33.130;-117.188;2023-06-24T09:29:42;11.43;;;4.63;;
37847;SDS011;23688;33.130;-117.188;2023-06-24T09:32:09;9.48;;;3.67;;
37847;SDS011;23688;33.130;-117.188;2023-06-24T09:34:35;9.18;;;4.07;;
37847;SDS011;23688;33.130;-117.188;2023-06-24T09:37:02;14.95;;;4.75;;
37847;SDS011;23688;33.130;-117.188;2023-06-24T09:39:30;10.80;;;4.38;;
37847;SDS011;23688;33.130;-117.188;2023-06-24T09:42:02;8.63;;;4.55;;
37847;SDS011;23688;33.130;-117.188;2023-06-24T09:44:29;10.07;;;4.07;;
37847;SDS011;23688;33.130;-117.188;2023-06-24T09:46:57;11.25;;;4.05;;
37847;SDS011;23688;33.130;-117.188;2023-06-24T09:49:23;7.13;;;3.65;;
37847;SDS011;23688;33.130;-117.188;2023-06-24T09:51:56;13.80;;;4.15;;
37847;SDS011;23688;33.130;-117.188;2023-06-24T09:54:24;9.02;;;3.95;;
37847;SDS011;23688;33.130;-117.188;2023-06-24T09:56:53;15.70;;;4.20;;
37847;SDS011;23688;33.130;-117.188;2023-06-24T09:59:20;11.10;;;4.70;;
37847;SDS011;23688;33.130;-117.188;2023-06-24T10:01:48;10.63;;;4.28;;
37847;SDS011;23688;33.130;-117.188;2023-06-24T10:04:18;8.57;;;4.03;;
37847;SDS011;23688;33.130;-117.188;2023-06-24T10:06:47;6.78;;;3.85;;
37847;SDS011;23688;33.130;-117.188;2023-06-24T10:09:14;11.38;;;4.75;;
37847;SDS011;23688;33.130;-117.188;2023-06-24T10:11:46;8.45;;;3.80;;
37847;SDS011;23688;33.130;-117.188;2023-06-24T10:14:15;9.80;;;4.05;;
37847;SDS011;23688;33.130;-117.188;2023-06-24T10:16:42;10.85;;;4.55;;
37847;SDS011;23688;33.130;-117.188;2023-06-24T10:19:10;11.82;;;4.90;;
37847;SDS011;23688;33.130;-117.188;2023-06-24T10:24:29;13.45;;;4.85;;
37847;SDS011;23688;33.130;-117.188;2023-06-24T10:27:02;13.20;;;5.38;;
37847;SDS011;23688;33.130;-117.188;2023-06-24T10:29:36;9.15;;;4.05;;
37847;SDS011;23688;33.130;-117.188;2023-06-24T10:32:06;11.52;;;4.88;;
37847;SDS011;23688;33.130;-117.188;2023-06-24T10:34:34;15.93;;;5.00;;
37847;SDS011;23688;33.130;-117.188;2023-06-24T10:37:12;17.67;;;5.85;;
37847;SDS011;23688;33.130;-117.188;2023-06-24T10:42:26;13.35;;;4.75;;
37847;SDS011;23688;33.130;-117.188;2023-06-24T10:47:43;7.82;;;4.38;;
37847;SDS011;23688;33.130;-117.188;2023-06-24T10:50:12;6.53;;;3.92;;
37847;SDS011;23688;33.130;-117.188;2023-06-24T10:52:50;8.45;;;4.85;;
37847;SDS011;23688;33.130;-117.188;2023-06-24T10:55:24;7.43;;;4.03;;
37847;SDS011;23688;33.130;-117.188;2023-06-24T10:57:51;13.25;;;4.75;;
37847;SDS011;23688;33.130;-117.188;2023-06-24T11:00:17;15.68;;;5.38;;
37847;SDS011;23688;33.130;-117.188;2023-06-24T11:05:12;9.43;;;4.25;;
37847;SDS011;23688;33.130;-117.188;2023-06-24T11:07:38;8.82;;;4.57;;
37847;SDS011;23688;33.130;-117.188;2023-06-24T11:12:34;12.32;;;4.32;;
37847;SDS011;23688;33.130;-117.188;2023-06-24T11:15:05;9.75;;;4.25;;
37847;SDS011;23688;33.130;-117.188;2023-06-24T11:17:33;12.52;;;4.45;;
37847;SDS011;23688;33.130;-117.188;2023-06-24T11:20:00;12.23;;;4.77;;
37847;SDS011;23688;33.130;-117.188;2023-06-24T11:22:28;13.07;;;4.63;;
37847;SDS011;23688;33.130;-117.188;2023-06-24T11:24:54;8.27;;;4.18;;
37847;SDS011;23688;33.130;-117.188;2023-06-24T11:27:28;7.10;;;3.88;;
37847;SDS011;23688;33.130;-117.188;2023-06-24T11:29:57;8.43;;;4.18;;
37847;SDS011;23688;33.130;-117.188;2023-06-24T11:32:36;11.02;;;4.53;;
37847;SDS011;23688;33.130;-117.188;2023-06-24T11:35:11;7.00;;;3.85;;
37847;SDS011;23688;33.130;-117.188;2023-06-24T11:37:44;9.82;;;4.82;;
37847;SDS011;23688;33.130;-117.188;2023-06-24T11:40:13;8.30;;;4.32;;
37847;SDS011;23688;33.130;-117.188;2023-06-24T11:42:42;12.35;;;4.90;;
37847;SDS011;23688;33.130;-117.188;2023-06-24T11:45:10;12.68;;;5.07;;
37847;SDS011;23688;33.130;-117.188;2023-06-24T11:47:40;12.63;;;5.68;;
37847;SDS011;23688;33.130;-117.188;2023-06-24T11:50:07;11.50;;;4.97;;
37847;SDS011;23688;33.130;-117.188;2023-06-24T11:52:47;14.57;;;4.93;;
37847;SDS011;23688;33.130;-117.188;2023-06-24T11:55:20;9.27;;;4.78;;
37847;SDS011;23688;33.130;-117.188;2023-06-24T12:00:19;14.52;;;5.57;;
37847;SDS011;23688;33.130;-117.188;2023-06-24T12:02:53;13.30;;;5.35;;
37847;SDS011;23688;33.130;-117.188;2023-06-24T12:05:28;17.60;;;5.25;;
37847;SDS011;23688;33.130;-117.188;2023-06-24T12:08:02;13.07;;;5.20;;
37847;SDS011;23688;33.130;-117.188;2023-06-24T12:10:32;12.10;;;5.13;;
37847;SDS011;23688;33.130;-117.188;2023-06-24T12:13:00;11.07;;;6.03;;
37847;SDS011;23688;33.130;-117.188;2023-06-24T12:15:29;12.20;;;5.32;;
37847;SDS011;23688;33.130;-117.188;2023-06-24T12:17:55;17.67;;;5.18;;
37847;SDS011;23688;33.130;-117.188;2023-06-24T12:20:24;12.07;;;5.20;;
37847;SDS011;23688;33.130;-117.188;2023-06-24T12:22:54;10.63;;;5.53;;
37847;SDS011;23688;33.130;-117.188;2023-06-24T12:25:21;14.20;;;4.90;;
37847;SDS011;23688;33.130;-117.188;2023-06-24T12:27:47;18.15;;;6.03;;
37847;SDS011;23688;33.130;-117.188;2023-06-24T12:30:13;13.68;;;5.32;;
37847;SDS011;23688;33.130;-117.188;2023-06-24T12:32:42;18.80;;;5.97;;
37847;SDS011;23688;33.130;-117.188;2023-06-24T12:35:09;12.60;;;6.10;;
37847;SDS011;23688;33.130;-117.188;2023-06-24T12:37:35;20.20;;;5.68;;
37847;SDS011;23688;33.130;-117.188;2023-06-24T12:40:05;13.30;;;6.25;;
37847;SDS011;23688;33.130;-117.188;2023-06-24T12:42:32;11.52;;;4.95;;
37847;SDS011;23688;33.130;-117.188;2023-06-24T12:44:59;19.60;;;5.82;;
37847;SDS011;23688;33.130;-117.188;2023-06-24T12:47:26;17.67;;;6.30;;
37847;SDS011;23688;33.130;-117.188;2023-06-24T12:49:52;17.08;;;5.30;;
37847;SDS011;23688;33.130;-117.188;2023-06-24T12:52:19;10.85;;;6.15;;
37847;SDS011;23688;33.130;-117.188;2023-06-24T12:54:45;16.45;;;5.90;;
37847;SDS011;23688;33.130;-117.188;2023-06-24T12:57:12;13.10;;;5.65;;
37847;SDS011;23688;33.130;-117.188;2023-06-24T12:59:38;12.30;;;5.07;;
37847;SDS011;23688;33.130;-117.188;2023-06-24T13:02:04;15.43;;;5.38;;
37847;SDS011;23688;33.130;-117.188;2023-06-24T13:04:31;13.88;;;5.25;;
37847;SDS011;23688;33.130;-117.188;2023-06-24T13:06:57;11.82;;;5.93;;
37847;SDS011;23688;33.130;-117.188;2023-06-24T13:09:24;16.98;;;5.20;;
37847;SDS011;23688;33.130;-117.188;2023-06-24T13:11:50;21.73;;;6.40;;
37847;SDS011;23688;33.130;-117.188;2023-06-24T13:14:17;10.02;;;5.00;;
37847;SDS011;23688;33.130;-117.188;2023-06-24T13:16:45;14.20;;;5.15;;
37847;SDS011;23688;33.130;-117.188;2023-06-24T13:19:11;9.15;;;5.18;;
37847;SDS011;23688;33.130;-117.188;2023-06-24T13:21:37;12.13;;;5.47;;
37847;SDS011;23688;33.130;-117.188;2023-06-24T13:24:06;12.63;;;5.57;;
37847;SDS011;23688;33.130;-117.188;2023-06-24T13:26:33;14.05;;;5.65;;
37847;SDS011;23688;33.130;-117.188;2023-06-24T13:29:00;10.43;;;5.05;;
37847;SDS011;23688;33.130;-117.188;2023-06-24T13:31:27;12.07;;;5.00;;
37847;SDS011;23688;33.130;-117.188;2023-06-24T13:33:56;13.80;;;4.78;;
37847;SDS011;23688;33.130;-117.188;2023-06-24T13:36:29;15.45;;;5.40;;
37847;SDS011;23688;33.130;-117.188;2023-06-24T13:39:04;18.02;;;6.22;;
37847;SDS011;23688;33.130;-117.188;2023-06-24T13:41:31;15.25;;;5.78;;
37847;SDS011;23688;33.130;-117.188;2023-06-24T13:43:59;13.25;;;5.35;;
37847;SDS011;23688;33.130;-117.188;2023-06-24T13:46:26;13.07;;;5.13;;
37847;SDS011;23688;33.130;-117.188;2023-06-24T13:48:53;19.52;;;5.63;;
37847;SDS011;23688;33.130;-117.188;2023-06-24T13:51:19;15.80;;;5.32;;
37847;SDS011;23688;33.130;-117.188;2023-06-24T13:53:47;12.88;;;5.53;;
37847;SDS011;23688;33.130;-117.188;2023-06-24T13:56:16;10.45;;;5.55;;
37847;SDS011;23688;33.130;-117.188;2023-06-24T13:58:44;14.98;;;5.60;;
37847;SDS011;23688;33.130;-117.188;2023-06-24T14:01:10;12.25;;;4.82;;
37847;SDS011;23688;33.130;-117.188;2023-06-24T14:03:37;17.63;;;6.32;;
37847;SDS011;23688;33.130;-117.188;2023-06-24T14:06:04;11.00;;;5.35;;
37847;SDS011;23688;33.130;-117.188;2023-06-24T14:08:30;17.15;;;5.60;;
37847;SDS011;23688;33.130;-117.188;2023-06-24T14:11:00;14.57;;;5.82;;
37847;SDS011;23688;33.130;-117.188;2023-06-24T14:13:28;13.38;;;5.53;;
37847;SDS011;23688;33.130;-117.188;2023-06-24T14:15:55;13.25;;;6.20;;
37847;SDS011;23688;33.130;-117.188;2023-06-24T14:18:21;12.40;;;6.22;;
37847;SDS011;23688;33.130;-117.188;2023-06-24T14:20:48;20.58;;;5.72;;
37847;SDS011;23688;33.130;-117.188;2023-06-24T14:23:15;13.20;;;5.82;;
37847;SDS011;23688;33.130;-117.188;2023-06-24T14:25:41;15.65;;;6.13;;
37847;SDS011;23688;33.130;-117.188;2023-06-24T14:28:07;12.27;;;5.85;;
37847;SDS011;23688;33.130;-117.188;2023-06-24T14:30:34;15.85;;;5.07;;
37847;SDS011;23688;33.130;-117.188;2023-06-24T14:33:01;17.90;;;5.75;;
37847;SDS011;23688;33.130;-117.188;2023-06-24T14:35:28;16.00;;;5.50;;